Terminal Aerodrome Forecast
Issued by NWS Norman, OK

Home | Current Version | Previous Version | Text Only | Print | Product List | Glossary On
Versions: 1 2 3 4 5 6 7 8 9 10 11 12 13 14 15 16 17 18 19 20
000
FTUS44 KOUN 231128
TAFOKC
TAF
KOKC 231128Z 2312/2412 18011KT P6SM BKN050
      TEMPO 2312/2314 4SM BR OVC025
     FM231800 19011KT P6SM SCT050
     FM240000 15007KT P6SM SCT250=

USA.gov is the U.S. government's official web portal to all federal, state and local government web resources and services.